2008 FUNA (2008015S16162)


On this page: IBTrACS data - Map and Plots - Positions - Intensities - Original source data

Summary

Start Jan 15
End Jan 21
Basin SP
LMI 105 kt
Sources jtwc_sh
nadi
wellington
In WMO? Yes
Previous storm 2008 MISSING (WP)
Previous in basin 2008 ELISA (SP)
Concurrent storms 2008 MISSING (WP)
2008 FUNA (SP)
Next in basin Missing
Next storm 2008 FAME (SI)

top of page IBTrACS Data: File Access

top of page HURSAT Data: File Access

Image of storm

top of page Plots:

Map of storm track will not appear if FTP is down
Time series of cyclone Maximum Sustained Wind will not appear if FTP is down
Time series of cyclone Minimum Central Pressure will not appear if FTP is down

top of page Track Data:Position

jtwc_sh nadi wellington
Date Lat Lon Lat Lon Lat Lon
2008-01-15 06:00:00 -16.0 162.0 -16.0 162.0
2008-01-15 12:00:00 -15.4 162.8 -15.5 162.5 -15.5 162.5
2008-01-15 18:00:00 -15.4 163.1 -15.4 163.0 -15.4 163.0
2008-01-16 00:00:00 -15.3 163.7 -15.3 163.6 -15.3 163.6
2008-01-16 06:00:00 -15.0 164.6 -14.8 164.8 -14.8 164.8
2008-01-16 12:00:00 -14.8 165.7 -14.6 166.0 -14.6 166.0
2008-01-16 18:00:00 -14.9 167.1 -14.8 167.3 -14.8 167.3
2008-01-17 00:00:00 -15.1 168.2 -14.9 168.5 -14.9 168.5
2008-01-17 06:00:00 -15.5 169.2 -15.4 169.4 -15.4 169.4
2008-01-17 12:00:00 -16.0 170.3 -16.1 170.6 -16.1 170.6
2008-01-17 18:00:00 -16.7 171.3 -16.7 171.7 -16.7 171.7
2008-01-18 00:00:00 -17.4 172.2 -17.6 172.7 -17.6 172.7
2008-01-18 06:00:00 -18.2 173.0 -18.3 173.3 -18.3 173.3
2008-01-18 12:00:00 -18.8 173.6 -19.1 173.8 -19.1 173.8
2008-01-18 18:00:00 -19.8 174.2 -19.9 174.3 -19.9 174.3
2008-01-19 00:00:00 -21.0 174.7 -20.9 174.7 -20.9 174.7
2008-01-19 06:00:00 -22.3 175.2 -21.9 175.0 -21.9 175.0
2008-01-19 12:00:00 -24.0 175.5 -23.7 175.6 -23.7 175.6
2008-01-19 18:00:00 -26.1 175.0 -26.1 175.1 -26.0 175.1
2008-01-20 00:00:00 -28.1 173.5 -28.0 173.2 -28.0 173.2
2008-01-20 06:00:00 -29.0 171.3 -29.1 171.3 -29.1 171.3
2008-01-20 12:00:00 -30.1 170.1 -29.9 170.3 -29.9 170.3
2008-01-20 18:00:00 -31.5 168.9 -31.6 169.1 -31.6 169.1
2008-01-21 00:00:00 -33.1 167.9 -33.2 168.2 -33.2 168.2
2008-01-21 06:00:00 -34.6 167.7 -34.6 167.7
jtwc_sh nadi wellington
2008-01-21 12:00:00 -36.7 167.9 -36.7 167.9
2008-01-21 18:00:00 -38.3 169.2 -38.3 169.2

top of pageTrack Data:Intensity

jtwc_sh nadi wellington
Date Wind Pres Wind Pres Wind Pres
2008-01-15 06:00:00 30. 999. 30. 999.
2008-01-15 12:00:00 20. 1007. 30. 997. 30. 997.
2008-01-15 18:00:00 25. 1004. 30. 997. 30. 997.
2008-01-16 00:00:00 30. 1000. 30. 995. 30. 995.
2008-01-16 06:00:00 35. 996. 35. 990. 35. 990.
2008-01-16 12:00:00 45. 989. 40. 987. 40. 987.
2008-01-16 18:00:00 55. 982. 50. 980. 50. 980.
2008-01-17 00:00:00 55. 982. 55. 970. 55. 970.
2008-01-17 06:00:00 60. 978. 55. 970. 55. 970.
2008-01-17 12:00:00 65. 974. 55. 970. 55. 970.
2008-01-17 18:00:00 70. 970. 60. 965. 60. 965.
2008-01-18 00:00:00 75. 967. 70. 960. 70. 960.
2008-01-18 06:00:00 80. 963. 70. 960. 70. 960.
2008-01-18 12:00:00 90. 956. 80. 955. 80. 955.
2008-01-18 18:00:00 105. 944. 85. 945. 85. 945.
2008-01-19 00:00:00 105. 944. 90. 935. 90. 935.
2008-01-19 06:00:00 105. 944. 95. 930. 95. 930.
2008-01-19 12:00:00 95. 952. 95. 930. 95. 930.
2008-01-19 18:00:00 75. 967. 85. 945. 85. 945.
2008-01-20 00:00:00 70. 970. 80. 950. 80. 950.
2008-01-20 06:00:00 55. 982. 70. 965. 70. 965.
2008-01-20 12:00:00 40. 993. 65. 970. 65. 970.
2008-01-20 18:00:00 30. 1000. 60. 975. 60. 975.
2008-01-21 00:00:00 30. 1000. 50. 980. 50. 981.
2008-01-21 06:00:00 50. 987. 50. 987.
jtwc_sh nadi wellington
2008-01-21 12:00:00 45. 987. 45. 987.
2008-01-21 18:00:00 45. 992. 45. 992.

top of page Links to source data

Source Source file Format
jtwc_sh bsh122008.txt ATCF
nadi RSMC-Nadi-2007-08-BT-Data.txt:Line=64:FUNA Text table
wellington TC_BT_2006-2009.csv:Line=148:FUNA Text table